Time;durP1;ratioP1;P1;durP2;ratioP2;P2;SDS_P1;SDS_P2;PMS_P1;PMS_P2;Temp;Humidity;BMP_temperature;BMP_pressure;BME280_temperature;BME280_humidity;BME280_pressure;Samples;Min_cycle;Max_cycle;Signal;HPM_P1;HPM_P2
2023/02/14 00:01:29;;;;;;;;;;;5.50;99.90;;;;;;5023608;28;19916;-63
2023/02/14 00:03:59;;;;;;;;;;;5.50;99.90;;;;;;5022687;28;19927;-65
2023/02/14 00:06:24;;;;;;;;;;;5.50;99.90;;;;;;5025398;28;19917;-64
2023/02/14 00:08:52;;;;;;;;;;;5.50;99.90;;;;;;5019603;28;20008;-65
2023/02/14 00:11:18;;;;;;;;;;;5.50;99.90;;;;;;5027698;28;19921;-64
2023/02/14 00:15:20;;;;;;;;;;;5.50;99.90;;;;;;5025483;28;19992;-63
2023/02/14 00:16:29;;;;;;;;;;;5.50;99.90;;;;;;5023916;28;20295;-65
2023/02/14 00:19:04;;;;;;;;;;;5.50;99.90;;;;;;5025261;28;19917;-64
2023/02/14 00:21:30;;;;;;;;;;;5.50;99.90;;;;;;5026744;28;19913;-65
2023/02/14 00:23:55;;;;;;;;;;;5.50;99.90;;;;;;5023172;28;20291;-65
2023/02/14 00:26:21;;;;;;;;;;;5.50;99.90;;;;;;5007799;28;19996;-63
2023/02/14 00:28:46;;;;;;;;;;;5.50;99.90;;;;;;5027141;28;19924;-65
2023/02/14 00:31:12;;;;;;;;;;;5.60;99.90;;;;;;5026751;28;19956;-65
2023/02/14 00:33:37;;;;;;;;;;;5.60;99.90;;;;;;5025816;28;19909;-64
2023/02/14 00:36:03;;;;;;;;;;;5.60;99.90;;;;;;5026461;28;20481;-61
2023/02/14 00:38:29;;;;;;;;;;;5.60;99.90;;;;;;5027757;28;20398;-64
2023/02/14 00:40:54;;;;;;;;;;;5.70;99.90;;;;;;5028857;28;19913;-65
2023/02/14 00:43:19;;;;;;;;;;;5.70;99.90;;;;;;5022157;28;19924;-63
2023/02/14 00:45:45;;;;;;;;;;;5.70;99.90;;;;;;5027974;28;19919;-64
2023/02/14 00:48:10;;;;;;;;;;;5.70;99.90;;;;;;5029067;28;20112;-67
2023/02/14 00:50:36;;;;;;;;;;;5.70;99.90;;;;;;5029709;28;20011;-62
2023/02/14 00:53:01;;;;;;;;;;;5.70;99.90;;;;;;5027705;28;19921;-64
2023/02/14 00:55:27;;;;;;;;;;;5.80;99.90;;;;;;5028449;28;19921;-64
2023/02/14 00:57:52;;;;;;;;;;;5.70;99.90;;;;;;5028038;28;20397;-61
2023/02/14 01:00:18;;;;;;;;;;;5.70;99.90;;;;;;5028153;28;19992;-65
2023/02/14 01:02:43;;;;;;;;;;;5.70;99.90;;;;;;5031469;28;19913;-64
2023/02/14 01:05:09;;;;;;;;;;;5.70;99.90;;;;;;5020964;28;19913;-63
2023/02/14 01:07:34;;;;;;;;;;;5.60;99.90;;;;;;5026863;28;19967;-65
2023/02/14 01:09:59;;;;;;;;;;;5.60;99.90;;;;;;5028145;28;19913;-64
2023/02/14 01:12:25;;;;;;;;;;;5.60;99.90;;;;;;5030439;28;19917;-62
2023/02/14 01:14:50;;;;;;;;;;;5.60;99.90;;;;;;5028088;28;19917;-63
2023/02/14 01:17:16;;;;;;;;;;;5.60;99.90;;;;;;5024071;28;20028;-63
2023/02/14 01:19:41;;;;;;;;;;;5.60;99.90;;;;;;5026602;28;19917;-63
2023/02/14 01:22:07;;;;;;;;;;;5.60;99.90;;;;;;5026736;28;20446;-65
2023/02/14 01:24:32;;;;;;;;;;;5.50;99.90;;;;;;5012285;28;19971;-64
2023/02/14 01:26:58;;;;;;;;;;;5.40;99.90;;;;;;5032440;28;20284;-64
2023/02/14 01:29:23;;;;;;;;;;;5.40;99.90;;;;;;5032644;28;19913;-65
2023/02/14 01:31:48;;;;;;;;;;;5.40;99.90;;;;;;5025161;28;19953;-63
2023/02/14 01:34:14;;;;;;;;;;;5.30;99.90;;;;;;5026004;28;19918;-64
2023/02/14 01:36:40;;;;;;;;;;;5.30;99.90;;;;;;5029558;28;19967;-62
2023/02/14 01:39:07;;;;;;;;;;;5.30;99.90;;;;;;5027642;28;19975;-65
2023/02/14 01:41:33;;;;;;;;;;;5.30;99.90;;;;;;5030947;28;19917;-65
2023/02/14 01:44:19;;;;;;;;;;;5.30;99.90;;;;;;5025725;28;20315;-64
2023/02/14 01:46:45;;;;;;;;;;;5.30;99.90;;;;;;5006355;28;19943;-63
2023/02/14 01:49:10;;;;;;;;;;;5.30;99.90;;;;;;5028927;28;20586;-64
2023/02/14 01:51:39;;;;;;;;;;;5.20;99.90;;;;;;5027261;28;19913;-64
2023/02/14 01:54:07;;;;;;;;;;;5.10;99.90;;;;;;5022544;28;19914;-64
2023/02/14 01:56:37;;;;;;;;;;;5.10;99.90;;;;;;5029073;28;19964;-65
2023/02/14 01:59:05;;;;;;;;;;;5.10;99.90;;;;;;5023796;28;19925;-65
2023/02/14 02:01:30;;;;;;;;;;;5.10;99.90;;;;;;5026414;28;19928;-65
2023/02/14 02:03:58;;;;;;;;;;;5.00;99.90;;;;;;5026654;28;20003;-65
2023/02/14 02:06:28;;;;;;;;;;;5.00;99.90;;;;;;5029592;28;19917;-65
2023/02/14 02:08:56;;;;;;;;;;;5.00;99.90;;;;;;5026825;28;19924;-61
2023/02/14 02:11:22;;;;;;;;;;;5.00;99.90;;;;;;5027724;28;19913;-64
2023/02/14 02:13:47;;;;;;;;;;;5.00;99.90;;;;;;5029560;28;19936;-65
2023/02/14 02:16:21;;;;;;;;;;;5.00;99.90;;;;;;5028829;28;19921;-64
2023/02/14 02:18:57;;;;;;;;;;;5.00;99.90;;;;;;5031278;28;19920;-65
2023/02/14 02:21:22;;;;;;;;;;;5.00;99.90;;;;;;5025873;28;19924;-63
2023/02/14 02:23:57;;;;;;;;;;;4.90;99.90;;;;;;5029494;28;19920;-65
2023/02/14 02:26:39;;;;;;;;;;;5.00;99.90;;;;;;5021421;28;22235;-64
2023/02/14 02:29:23;;;;;;;;;;;4.90;99.90;;;;;;5025754;28;19913;-65
2023/02/14 02:32:00;;;;;;;;;;;4.90;99.90;;;;;;5028231;28;19921;-65
2023/02/14 02:34:37;;;;;;;;;;;4.90;99.90;;;;;;5027771;28;19913;-64
2023/02/14 02:37:21;;;;;;;;;;;4.90;99.90;;;;;;5027957;28;19917;-62
2023/02/14 02:40:06;;;;;;;;;;;4.90;99.90;;;;;;5029927;28;19920;-63
2023/02/14 02:42:51;;;;;;;;;;;4.90;99.90;;;;;;5008443;28;19920;-64
2023/02/14 02:45:17;;;;;;;;;;;5.00;99.90;;;;;;5023882;28;19924;-65
2023/02/14 02:47:42;;;;;;;;;;;5.00;99.90;;;;;;5027641;28;20303;-63
2023/02/14 02:53:19;;;;;;;;;;;4.90;99.90;;;;;;5024400;28;19920;-65
2023/02/14 02:58:41;;;;;;;;;;;4.90;99.90;;;;;;5024581;28;19944;-64
2023/02/14 03:01:15;;;;;;;;;;;4.90;99.90;;;;;;5024028;28;19913;-64
2023/02/14 03:06:28;;;;;;;;;;;4.90;99.90;;;;;;5060266;23;19934;-82
2023/02/14 03:08:54;;;;;;;;;;;4.90;99.90;;;;;;5061076;28;19908;-82
2023/02/14 03:11:20;;;;;;;;;;;4.90;99.90;;;;;;5060825;28;19908;-80
2023/02/14 03:13:45;;;;;;;;;;;4.80;99.90;;;;;;5060636;28;20385;-81
2023/02/14 03:16:26;;;;;;;;;;;4.90;99.90;;;;;;5060373;28;19909;-80
2023/02/14 03:18:57;;;;;;;;;;;4.90;99.90;;;;;;5060510;28;19912;-81
2023/02/14 03:21:48;;;;;;;;;;;4.90;99.90;;;;;;5059738;28;19962;-81
2023/02/14 03:24:23;;;;;;;;;;;4.80;99.90;;;;;;5060466;28;19923;-81
2023/02/14 03:26:52;;;;;;;;;;;4.80;99.90;;;;;;5060283;28;19917;-81
2023/02/14 03:29:25;;;;;;;;;;;4.80;99.90;;;;;;5079276;28;19909;-81
2023/02/14 03:32:09;;;;;;;;;;;4.80;99.90;;;;;;5060581;28;19919;-80
2023/02/14 03:34:46;;;;;;;;;;;4.70;99.90;;;;;;5079328;28;20365;-81
2023/02/14 03:37:14;;;;;;;;;;;4.70;99.90;;;;;;5078771;28;19954;-81
2023/02/14 03:39:47;;;;;;;;;;;4.60;99.90;;;;;;5061508;28;19916;-81
2023/02/14 03:42:24;;;;;;;;;;;4.60;99.90;;;;;;5061703;28;19931;-81
2023/02/14 03:44:52;;;;;;;;;;;4.60;99.90;;;;;;5062227;28;20347;-81
2023/02/14 03:47:19;;;;;;;;;;;4.60;99.90;;;;;;5061240;28;19909;-82
2023/02/14 03:49:51;;;;;;;;;;;4.60;99.90;;;;;;5078121;28;19954;-82
2023/02/14 03:52:18;;;;;;;;;;;4.60;99.90;;;;;;5078725;28;19909;-82
2023/02/14 03:54:45;;;;;;;;;;;4.60;99.90;;;;;;5061972;28;19908;-82
2023/02/14 03:57:13;;;;;;;;;;;4.60;99.90;;;;;;5062404;28;19934;-80
2023/02/14 03:59:40;;;;;;;;;;;4.50;99.90;;;;;;5061511;28;19915;-82
2023/02/14 04:02:20;;;;;;;;;;;4.40;99.90;;;;;;5078273;28;19908;-82
2023/02/14 04:04:48;;;;;;;;;;;4.40;99.90;;;;;;5078404;28;20316;-82
2023/02/14 04:07:15;;;;;;;;;;;4.40;99.90;;;;;;5059608;28;20373;-82
2023/02/14 04:09:41;;;;;;;;;;;4.40;99.90;;;;;;5061200;28;19908;-82
2023/02/14 04:12:07;;;;;;;;;;;4.40;99.90;;;;;;5060097;28;19912;-81
2023/02/14 04:14:33;;;;;;;;;;;4.40;99.90;;;;;;5060923;28;20437;-80
2023/02/14 04:19:42;;;;;;;;;;;4.30;99.90;;;;;;5078236;28;19919;-82
2023/02/14 04:22:08;;;;;;;;;;;4.30;99.90;;;;;;5059156;28;19909;-82
2023/02/14 04:24:33;;;;;;;;;;;4.30;99.90;;;;;;5077058;28;19955;-82
2023/02/14 04:27:11;;;;;;;;;;;4.30;99.90;;;;;;5077286;28;19972;-82
2023/02/14 04:29:41;;;;;;;;;;;4.30;99.90;;;;;;5059024;28;20387;-82
2023/02/14 04:32:07;;;;;;;;;;;4.30;99.90;;;;;;5078821;28;19920;-82
2023/02/14 04:34:33;;;;;;;;;;;4.30;99.90;;;;;;5060584;28;20351;-83
2023/02/14 04:36:59;;;;;;;;;;;4.20;99.90;;;;;;5059935;28;19908;-82
2023/02/14 04:39:24;;;;;;;;;;;4.20;99.90;;;;;;5078051;28;19944;-82
2023/02/14 04:41:50;;;;;;;;;;;4.20;99.90;;;;;;5077169;28;20022;-80
2023/02/14 04:44:15;;;;;;;;;;;4.10;99.90;;;;;;5077933;28;19920;-81
2023/02/14 04:46:41;;;;;;;;;;;4.10;99.90;;;;;;5078530;28;19908;-81
2023/02/14 04:49:06;;;;;;;;;;;4.10;99.90;;;;;;5060455;28;20443;-80
2023/02/14 04:51:32;;;;;;;;;;;4.10;99.90;;;;;;5077960;28;19908;-81
2023/02/14 04:53:57;;;;;;;;;;;4.10;99.90;;;;;;5060410;28;19909;-80
2023/02/14 04:56:24;;;;;;;;;;;4.10;99.90;;;;;;5059163;28;20025;-80
2023/02/14 04:58:50;;;;;;;;;;;4.00;99.90;;;;;;5058867;28;19915;-81
2023/02/14 05:01:15;;;;;;;;;;;4.00;99.90;;;;;;5059173;28;20292;-82
2023/02/14 05:03:41;;;;;;;;;;;4.00;99.90;;;;;;5077250;28;19913;-80
2023/02/14 05:06:06;;;;;;;;;;;4.00;99.90;;;;;;5058146;28;20335;-82
2023/02/14 05:08:32;;;;;;;;;;;4.00;99.90;;;;;;5058030;28;19987;-82
2023/02/14 05:10:57;;;;;;;;;;;4.00;99.90;;;;;;5076801;28;19908;-80
2023/02/14 05:13:23;;;;;;;;;;;4.00;99.90;;;;;;5058236;28;19908;-82
2023/02/14 05:15:48;;;;;;;;;;;3.90;99.90;;;;;;5057924;28;20007;-82
2023/02/14 05:18:14;;;;;;;;;;;4.00;99.90;;;;;;5077323;28;19909;-80
2023/02/14 05:20:39;;;;;;;;;;;4.00;99.90;;;;;;5058103;28;19909;-81
2023/02/14 05:23:05;;;;;;;;;;;3.90;99.90;;;;;;5078267;28;19915;-80
2023/02/14 05:25:31;;;;;;;;;;;3.90;99.90;;;;;;5072549;28;19909;-82
2023/02/14 05:27:57;;;;;;;;;;;3.90;99.90;;;;;;5079963;28;20010;-81
2023/02/14 05:30:26;;;;;;;;;;;3.90;99.90;;;;;;5080286;28;19919;-81
2023/02/14 05:32:52;;;;;;;;;;;3.90;99.90;;;;;;5081166;28;19916;-81
2023/02/14 05:35:18;;;;;;;;;;;3.90;99.90;;;;;;5080762;28;19913;-80
2023/02/14 05:37:43;;;;;;;;;;;3.90;99.90;;;;;;5081139;28;19908;-82
2023/02/14 05:40:12;;;;;;;;;;;3.90;99.90;;;;;;5080344;28;20284;-81
2023/02/14 05:42:37;;;;;;;;;;;4.00;99.90;;;;;;5079585;28;20372;-79
2023/02/14 05:45:03;;;;;;;;;;;4.00;99.90;;;;;;5079258;28;19912;-81
2023/02/14 05:47:29;;;;;;;;;;;3.90;99.90;;;;;;5080319;28;20327;-81
2023/02/14 05:49:54;;;;;;;;;;;3.80;99.90;;;;;;5078278;28;20272;-81
2023/02/14 05:52:20;;;;;;;;;;;3.90;99.90;;;;;;5079900;28;19908;-80
2023/02/14 05:54:45;;;;;;;;;;;3.90;99.90;;;;;;5078986;28;19912;-82
2023/02/14 05:57:11;;;;;;;;;;;3.80;99.90;;;;;;5079084;28;19908;-80
2023/02/14 05:59:36;;;;;;;;;;;3.80;99.90;;;;;;5060781;28;20015;-81
2023/02/14 06:02:02;;;;;;;;;;;3.80;99.90;;;;;;5061626;28;19938;-84
2023/02/14 06:04:27;;;;;;;;;;;3.80;99.90;;;;;;5061420;28;19969;-80
2023/02/14 06:06:53;;;;;;;;;;;3.80;99.90;;;;;;5079593;28;19916;-83
2023/02/14 06:09:18;;;;;;;;;;;3.80;99.90;;;;;;5043045;28;19962;-82
2023/02/14 06:11:44;;;;;;;;;;;3.80;99.90;;;;;;5042652;28;19916;-80
2023/02/14 06:14:09;;;;;;;;;;;3.80;99.90;;;;;;5041801;28;19909;-80
2023/02/14 06:16:35;;;;;;;;;;;3.80;99.90;;;;;;5059450;28;19913;-81
2023/02/14 06:19:00;;;;;;;;;;;3.90;99.90;;;;;;5066518;28;19916;-81
2023/02/14 06:21:26;;;;;;;;;;;3.80;99.90;;;;;;5080209;28;19912;-84
2023/02/14 06:23:51;;;;;;;;;;;3.80;99.90;;;;;;5080361;28;20306;-84
2023/02/14 06:26:17;;;;;;;;;;;3.80;99.90;;;;;;5063079;28;19915;-82
2023/02/14 06:28:42;;;;;;;;;;;3.70;99.90;;;;;;5081399;28;19900;-81
2023/02/14 06:31:14;;;;;;;;;;;3.70;99.90;;;;;;5063331;28;19947;-84
2023/02/14 06:33:39;;;;;;;;;;;3.60;99.90;;;;;;5052431;28;19932;-82
2023/02/14 06:36:05;;;;;;;;;;;3.70;99.90;;;;;;5052654;28;19916;-86
2023/02/14 06:38:30;;;;;;;;;;;3.60;99.90;;;;;;5063191;28;20372;-83
2023/02/14 06:41:01;;;;;;;;;;;3.70;99.90;;;;;;5080126;28;19950;-83
2023/02/14 06:43:26;;;;;;;;;;;3.70;99.90;;;;;;5080423;28;20014;-83
2023/02/14 06:45:52;;;;;;;;;;;3.70;99.90;;;;;;5096970;28;20439;-84
2023/02/14 06:48:17;;;;;;;;;;;3.80;99.90;;;;;;5083750;28;19973;-85
2023/02/14 06:50:45;;;;;;;;;;;3.80;99.90;;;;;;5083565;28;19915;-82
2023/02/14 06:53:10;;;;;;;;;;;3.70;99.90;;;;;;5083278;28;19969;-83
2023/02/14 06:55:36;;;;;;;;;;;3.70;99.90;;;;;;5082027;28;19916;-84
2023/02/14 06:58:01;;;;;;;;;;;3.70;99.90;;;;;;5083474;28;20417;-81
2023/02/14 07:00:27;;;;;;;;;;;3.70;99.90;;;;;;5082812;28;19919;-83
2023/02/14 07:02:52;;;;;;;;;;;3.70;99.90;;;;;;5082247;28;19934;-84
2023/02/14 07:05:17;;;;;;;;;;;3.60;99.90;;;;;;5082035;28;19915;-82
2023/02/14 07:07:43;;;;;;;;;;;3.70;99.90;;;;;;5082233;28;20394;-83
2023/02/14 07:10:09;;;;;;;;;;;3.70;99.90;;;;;;5082175;28;19930;-83
2023/02/14 07:12:34;;;;;;;;;;;3.80;99.90;;;;;;5100806;28;19931;-80
2023/02/14 07:15:00;;;;;;;;;;;3.80;99.90;;;;;;5100298;28;19908;-84
2023/02/14 07:17:25;;;;;;;;;;;3.80;99.90;;;;;;5082860;28;19908;-84
2023/02/14 07:19:51;;;;;;;;;;;3.80;99.90;;;;;;5081235;28;19908;-83
2023/02/14 07:22:16;;;;;;;;;;;3.80;99.90;;;;;;5100517;28;19919;-82
2023/02/14 07:24:42;;;;;;;;;;;3.90;99.90;;;;;;5082429;28;20010;-83
2023/02/14 07:27:07;;;;;;;;;;;3.90;99.90;;;;;;5081376;28;20319;-84
2023/02/14 07:29:33;;;;;;;;;;;3.90;99.90;;;;;;5100171;28;19975;-82
2023/02/14 07:31:58;;;;;;;;;;;4.00;99.90;;;;;;5083364;28;19908;-85
2023/02/14 07:34:26;;;;;;;;;;;4.00;99.90;;;;;;5083403;28;19912;-84
2023/02/14 07:36:51;;;;;;;;;;;4.00;99.90;;;;;;5101315;28;19912;-82
2023/02/14 07:39:16;;;;;;;;;;;4.10;99.90;;;;;;5083009;28;19918;-84
2023/02/14 07:41:42;;;;;;;;;;;4.10;99.90;;;;;;5084124;28;19954;-84
2023/02/14 07:44:07;;;;;;;;;;;4.10;99.90;;;;;;5083401;28;19918;-83
2023/02/14 07:46:33;;;;;;;;;;;4.20;99.90;;;;;;5087513;28;19930;-85
2023/02/14 07:48:58;;;;;;;;;;;4.20;99.90;;;;;;5081426;28;19915;-84
2023/02/14 07:51:24;;;;;;;;;;;4.20;99.90;;;;;;5062048;28;19909;-82
2023/02/14 07:53:49;;;;;;;;;;;4.20;99.90;;;;;;5061860;28;19908;-84
2023/02/14 07:56:15;;;;;;;;;;;4.30;99.90;;;;;;5062630;28;19909;-81
2023/02/14 07:58:40;;;;;;;;;;;4.30;99.90;;;;;;5061508;28;19961;-83
2023/02/14 08:01:06;;;;;;;;;;;4.30;99.90;;;;;;5062817;28;19920;-84
2023/02/14 08:03:31;;;;;;;;;;;4.40;99.90;;;;;;5063000;28;19920;-83
2023/02/14 08:05:57;;;;;;;;;;;4.40;99.90;;;;;;5062797;28;19943;-81
2023/02/14 08:08:23;;;;;;;;;;;4.50;99.90;;;;;;5061922;28;19982;-84
2023/02/14 08:10:48;;;;;;;;;;;4.50;99.90;;;;;;5077929;28;19991;-84
2023/02/14 08:13:14;;;;;;;;;;;4.60;99.90;;;;;;5077914;28;20395;-84
2023/02/14 08:18:24;;;;;;;;;;;4.70;99.90;;;;;;5058679;28;20273;-83
2023/02/14 08:20:49;;;;;;;;;;;4.80;99.90;;;;;;5040675;28;19909;-83
2023/02/14 08:23:15;;;;;;;;;;;4.90;99.90;;;;;;5039723;28;19909;-85
2023/02/14 08:25:41;;;;;;;;;;;4.90;99.90;;;;;;5056518;28;19909;-83
2023/02/14 08:28:06;;;;;;;;;;;4.90;99.90;;;;;;5077312;28;19913;-83
2023/02/14 08:30:32;;;;;;;;;;;5.00;99.90;;;;;;5060437;28;20005;-83
2023/02/14 08:32:57;;;;;;;;;;;5.00;99.90;;;;;;5061125;28;19916;-84
2023/02/14 08:35:23;;;;;;;;;;;5.20;99.90;;;;;;5061427;28;19916;-83
2023/02/14 08:37:49;;;;;;;;;;;5.20;99.90;;;;;;5061792;28;19931;-82
2023/02/14 08:40:14;;;;;;;;;;;5.20;99.90;;;;;;5061754;28;20353;-83
2023/02/14 08:42:40;;;;;;;;;;;5.30;99.90;;;;;;5062714;28;19908;-82
2023/02/14 08:45:05;;;;;;;;;;;5.40;99.90;;;;;;5060997;28;19954;-83
2023/02/14 08:47:34;;;;;;;;;;;5.40;99.90;;;;;;5058272;28;19909;-82
2023/02/14 08:50:04;;;;;;;;;;;5.50;99.90;;;;;;5059911;28;20277;-83
2023/02/14 08:52:29;;;;;;;;;;;5.60;99.90;;;;;;5058356;28;19940;-80
2023/02/14 08:54:55;;;;;;;;;;;5.70;99.90;;;;;;5057977;28;19959;-83
2023/02/14 08:57:21;;;;;;;;;;;5.70;99.90;;;;;;5058774;28;19962;-82
2023/02/14 08:59:46;;;;;;;;;;;5.80;99.90;;;;;;5061999;28;19913;-82
2023/02/14 09:02:12;;;;;;;;;;;5.80;99.90;;;;;;5076651;28;19909;-81
2023/02/14 09:04:38;;;;;;;;;;;5.90;99.90;;;;;;5060012;28;19956;-81
2023/02/14 09:07:04;;;;;;;;;;;6.00;99.90;;;;;;5061123;28;19917;-80
2023/02/14 09:09:30;;;;;;;;;;;6.00;99.90;;;;;;5061161;28;20381;-82
2023/02/14 09:11:56;;;;;;;;;;;6.10;99.90;;;;;;5060147;28;20284;-82
2023/02/14 09:14:23;;;;;;;;;;;6.20;99.90;;;;;;5061586;28;19959;-82
2023/02/14 09:16:48;;;;;;;;;;;6.30;99.90;;;;;;5062092;28;19962;-82
2023/02/14 09:19:14;;;;;;;;;;;6.40;99.90;;;;;;5060875;28;19909;-80
2023/02/14 09:21:39;;;;;;;;;;;6.50;99.90;;;;;;5060664;28;19909;-81
2023/02/14 09:24:05;;;;;;;;;;;6.60;99.90;;;;;;5060767;28;19912;-79
2023/02/14 09:26:31;;;;;;;;;;;6.60;99.90;;;;;;5061153;28;19947;-80
2023/02/14 09:28:56;;;;;;;;;;;6.70;99.90;;;;;;5060876;28;19944;-80
2023/02/14 09:31:23;;;;;;;;;;;6.80;99.90;;;;;;5065272;28;19964;-80
2023/02/14 09:39:17;;;;;;;;;;;7.20;99.90;;;;;;5081429;28;20003;-81
2023/02/14 09:42:07;;;;;;;;;;;7.30;99.90;;;;;;5064204;28;19943;-79
2023/02/14 09:44:38;;;;;;;;;;;7.40;99.90;;;;;;5064612;28;19919;-82
2023/02/14 09:47:23;;;;;;;;;;;7.50;99.90;;;;;;5063150;28;19908;-79
2023/02/14 09:49:49;;;;;;;;;;;7.60;99.90;;;;;;5064110;28;19908;-81
2023/02/14 09:52:15;;;;;;;;;;;7.70;99.90;;;;;;5064062;28;19908;-81
2023/02/14 09:54:42;;;;;;;;;;;7.90;99.90;;;;;;5082263;28;19959;-81
2023/02/14 09:57:28;;;;;;;;;;;8.00;99.90;;;;;;5081905;28;19916;-80
2023/02/14 09:59:57;;;;;;;;;;;8.10;99.90;;;;;;5074322;28;20285;-81
2023/02/14 10:02:43;;;;;;;;;;;8.20;99.90;;;;;;5064633;28;19909;-81
2023/02/14 10:05:22;;;;;;;;;;;8.30;99.90;;;;;;5082290;28;19913;-81
2023/02/14 10:08:17;;;;;;;;;;;8.50;99.90;;;;;;5064293;28;19917;-82
2023/02/14 10:10:44;;;;;;;;;;;8.60;99.90;;;;;;5055036;28;19909;-80
2023/02/14 10:13:31;;;;;;;;;;;8.70;99.90;;;;;;5081833;28;19972;-81
2023/02/14 10:16:00;;;;;;;;;;;8.90;99.90;;;;;;5063214;28;19961;-81
2023/02/14 10:18:39;;;;;;;;;;;9.10;99.90;;;;;;5080878;28;19908;-80
2023/02/14 10:21:06;;;;;;;;;;;9.20;99.90;;;;;;5081144;28;19915;-80
2023/02/14 10:23:36;;;;;;;;;;;9.20;99.90;;;;;;5062319;28;20329;-80
2023/02/14 10:26:13;;;;;;;;;;;9.20;99.90;;;;;;5062791;28;20262;-80
2023/02/14 10:28:42;;;;;;;;;;;9.30;99.90;;;;;;5080693;28;19908;-81
2023/02/14 10:31:22;;;;;;;;;;;9.40;99.90;;;;;;5063112;28;19909;-81
2023/02/14 10:33:53;;;;;;;;;;;9.60;99.90;;;;;;5062889;28;19912;-80
2023/02/14 10:36:38;;;;;;;;;;;9.60;99.90;;;;;;5063075;28;19956;-81
2023/02/14 10:39:17;;;;;;;;;;;9.80;99.90;;;;;;5073472;28;19940;-81
2023/02/14 10:41:50;;;;;;;;;;;10.10;99.90;;;;;;5062953;28;19974;-84
2023/02/14 10:44:16;;;;;;;;;;;10.20;99.90;;;;;;5080249;28;19913;-80
2023/02/14 10:46:45;;;;;;;;;;;10.20;99.90;;;;;;5060626;28;19915;-80
2023/02/14 10:49:11;;;;;;;;;;;10.30;99.90;;;;;;5062054;28;19909;-82
2023/02/14 10:51:36;;;;;;;;;;;10.20;99.90;;;;;;5080288;28;20357;-79
2023/02/14 10:54:08;;;;;;;;;;;10.30;99.90;;;;;;5062344;28;19959;-80
2023/02/14 10:56:37;;;;;;;;;;;10.40;99.90;;;;;;5062709;28;19908;-79
2023/02/14 10:59:10;;;;;;;;;;;10.50;99.90;;;;;;5080299;28;19940;-83
2023/02/14 11:01:36;;;;;;;;;;;10.50;99.90;;;;;;5063545;28;20237;-81
2023/02/14 11:04:05;;;;;;;;;;;10.60;99.90;;;;;;5079722;28;19912;-80
2023/02/14 11:06:30;;;;;;;;;;;10.50;99.90;;;;;;5061005;28;19916;-81
2023/02/14 11:08:56;;;;;;;;;;;10.70;99.90;;;;;;5078455;28;20377;-83
2023/02/14 11:11:37;;;;;;;;;;;10.80;99.90;;;;;;5061452;28;19909;-81
2023/02/14 11:14:21;;;;;;;;;;;10.80;99.90;;;;;;5060220;28;19960;-80
2023/02/14 11:16:50;;;;;;;;;;;10.60;99.90;;;;;;5077363;28;19919;-81
2023/02/14 11:19:30;;;;;;;;;;;10.90;99.90;;;;;;5066607;28;19916;-82
2023/02/14 11:21:56;;;;;;;;;;;11.00;99.90;;;;;;5075666;28;19908;-82
2023/02/14 11:24:25;;;;;;;;;;;11.20;99.90;;;;;;5077888;28;19912;-82
2023/02/14 11:26:51;;;;;;;;;;;11.30;99.90;;;;;;5078693;28;19912;-82
2023/02/14 11:29:25;;;;;;;;;;;11.30;99.90;;;;;;5076463;28;19905;-81
2023/02/14 11:31:53;;;;;;;;;;;11.60;99.90;;;;;;5078398;28;19921;-81
2023/02/14 11:34:32;;;;;;;;;;;11.80;99.90;;;;;;5078688;28;19915;-81
2023/02/14 11:36:59;;;;;;;;;;;11.80;99.90;;;;;;5077280;28;19915;-81
2023/02/14 11:39:33;;;;;;;;;;;11.90;99.90;;;;;;5076986;28;19978;-81
2023/02/14 11:42:00;;;;;;;;;;;12.00;99.90;;;;;;5078188;28;19947;-81
2023/02/14 11:44:28;;;;;;;;;;;12.10;99.90;;;;;;5077374;28;20383;-83
2023/02/14 11:46:55;;;;;;;;;;;12.10;99.90;;;;;;5060664;28;20365;-82
2023/02/14 11:49:23;;;;;;;;;;;11.90;99.90;;;;;;5077021;28;19972;-81
2023/02/14 11:51:48;;;;;;;;;;;12.20;99.90;;;;;;5077982;28;19909;-83
2023/02/14 11:54:34;;;;;;;;;;;12.30;99.90;;;;;;5077202;28;19973;-82
2023/02/14 11:57:02;;;;;;;;;;;12.40;99.90;;;;;;5079730;28;19908;-83
2023/02/14 11:59:45;;;;;;;;;;;12.70;99.90;;;;;;5080260;28;19915;-82
2023/02/14 12:02:16;;;;;;;;;;;12.80;99.90;;;;;;5079953;28;19908;-82
2023/02/14 12:04:43;;;;;;;;;;;12.90;99.90;;;;;;5080201;28;19912;-83
2023/02/14 12:07:13;;;;;;;;;;;13.00;99.90;;;;;;5098692;28;19916;-83
2023/02/14 12:09:42;;;;;;;;;;;13.10;99.90;;;;;;5081453;28;19909;-82
2023/02/14 12:12:16;;;;;;;;;;;13.00;99.90;;;;;;5098636;28;19912;-82
2023/02/14 12:14:42;;;;;;;;;;;13.30;99.90;;;;;;5079903;28;19908;-83
2023/02/14 12:17:10;;;;;;;;;;;13.50;99.90;;;;;;5097864;28;20300;-84
2023/02/14 12:19:41;;;;;;;;;;;13.40;99.90;;;;;;5075399;28;19909;-81
2023/02/14 12:22:09;;;;;;;;;;;13.60;99.90;;;;;;5060278;28;20263;-82
2023/02/14 12:24:37;;;;;;;;;;;13.90;99.90;;;;;;5077612;28;19920;-83
2023/02/14 12:27:18;;;;;;;;;;;13.90;99.90;;;;;;5060347;28;19908;-82
2023/02/14 12:29:47;;;;;;;;;;;14.30;99.90;;;;;;5060454;28;19940;-83
2023/02/14 12:32:39;;;;;;;;;;;13.90;99.90;;;;;;5062232;28;19916;-81
2023/02/14 12:35:15;;;;;;;;;;;13.90;99.90;;;;;;5052785;28;19908;-83
2023/02/14 12:37:53;;;;;;;;;;;14.30;99.90;;;;;;5060890;28;19916;-81
2023/02/14 12:40:24;;;;;;;;;;;14.60;99.90;;;;;;5076851;28;19968;-83
2023/02/14 12:42:53;;;;;;;;;;;14.60;99.90;;;;;;5085128;28;19908;-83
2023/02/14 12:45:18;;;;;;;;;;;15.00;99.90;;;;;;5084202;28;19979;-84
2023/02/14 12:47:44;;;;;;;;;;;14.90;99.90;;;;;;5082567;28;20352;-83
2023/02/14 12:50:26;;;;;;;;;;;15.10;99.90;;;;;;5082154;28;19908;-82
2023/02/14 12:52:53;;;;;;;;;;;15.20;99.90;;;;;;5080945;28;19935;-83
2023/02/14 12:55:28;;;;;;;;;;;15.00;99.90;;;;;;5081305;28;19913;-84
2023/02/14 12:58:01;;;;;;;;;;;15.20;99.90;;;;;;5081481;28;19908;-84
2023/02/14 13:00:30;;;;;;;;;;;15.10;99.90;;;;;;5081104;28;19908;-82
2023/02/14 13:02:56;;;;;;;;;;;15.30;99.90;;;;;;5081714;28;19908;-82
2023/02/14 13:05:29;;;;;;;;;;;15.50;99.90;;;;;;5068684;28;19958;-83
2023/02/14 13:08:00;;;;;;;;;;;15.70;99.90;;;;;;5064817;28;19948;-81
2023/02/14 13:10:29;;;;;;;;;;;15.40;99.90;;;;;;5064413;28;19953;-83
2023/02/14 13:13:10;;;;;;;;;;;15.30;99.90;;;;;;5069718;28;20418;-81
2023/02/14 13:15:45;;;;;;;;;;;15.30;99.90;;;;;;5081977;28;19905;-83
2023/02/14 13:18:16;;;;;;;;;;;15.40;99.90;;;;;;5072409;28;19918;-82
2023/02/14 13:20:51;;;;;;;;;;;15.80;99.90;;;;;;5084028;28;19913;-81
2023/02/14 13:23:19;;;;;;;;;;;15.90;99.90;;;;;;5053787;28;19999;-81
2023/02/14 13:25:51;;;;;;;;;;;15.90;99.90;;;;;;5056637;28;19920;-82
2023/02/14 13:28:17;;;;;;;;;;;15.90;99.90;;;;;;5080615;28;19966;-82
2023/02/14 13:30:43;;;;;;;;;;;15.60;99.90;;;;;;5066048;28;19909;-84
2023/02/14 13:33:22;;;;;;;;;;;16.10;99.90;;;;;;5075414;28;19914;-83
2023/02/14 13:35:48;;;;;;;;;;;16.10;99.90;;;;;;5066499;28;19909;-84
2023/02/14 13:38:16;;;;;;;;;;;16.00;99.90;;;;;;5082980;28;20325;-84
2023/02/14 13:40:41;;;;;;;;;;;16.30;99.90;;;;;;5065713;28;19917;-84
2023/02/14 13:43:07;;;;;;;;;;;16.10;99.90;;;;;;5074961;28;19912;-82
2023/02/14 13:48:03;;;;;;;;;;;16.40;99.90;;;;;;5081024;28;19953;-84
2023/02/14 13:50:37;;;;;;;;;;;15.90;99.90;;;;;;5059813;28;19908;-84
2023/02/14 13:53:02;;;;;;;;;;;16.20;99.90;;;;;;5042172;28;20380;-81
2023/02/14 13:55:32;;;;;;;;;;;16.10;99.90;;;;;;5063417;28;19912;-84
2023/02/14 13:58:00;;;;;;;;;;;16.30;99.90;;;;;;5069228;28;19909;-83
2023/02/14 14:00:39;;;;;;;;;;;16.20;99.90;;;;;;5041854;28;19909;-83
2023/02/14 14:03:06;;;;;;;;;;;16.10;99.90;;;;;;5057806;28;20564;-83
2023/02/14 14:05:31;;;;;;;;;;;15.80;99.90;;;;;;5068811;28;20384;-83
2023/02/14 14:08:15;;;;;;;;;;;16.10;99.90;;;;;;5084446;28;19916;-83
2023/02/14 14:10:48;;;;;;;;;;;15.90;99.90;;;;;;5056192;28;19965;-83
2023/02/14 14:13:32;;;;;;;;;;;15.50;99.90;;;;;;5076974;28;19909;-81
2023/02/14 14:16:16;;;;;;;;;;;15.70;99.90;;;;;;5078046;28;19917;-82
2023/02/14 14:18:42;;;;;;;;;;;15.60;99.90;;;;;;5064824;28;19908;-81
2023/02/14 14:21:15;;;;;;;;;;;15.80;99.90;;;;;;5074668;28;19920;-83
2023/02/14 14:23:41;;;;;;;;;;;15.80;99.90;;;;;;5069744;28;19912;-83
2023/02/14 14:26:25;;;;;;;;;;;15.50;99.90;;;;;;5060496;28;19935;-83
2023/02/14 14:28:51;;;;;;;;;;;15.20;99.90;;;;;;5054660;28;19966;-81
2023/02/14 14:31:19;;;;;;;;;;;15.00;99.90;;;;;;5070962;28;20008;-84
2023/02/14 14:33:44;;;;;;;;;;;15.00;99.90;;;;;;5055576;28;19908;-83
2023/02/14 14:36:20;;;;;;;;;;;15.20;99.90;;;;;;5075928;28;19916;-82
2023/02/14 14:38:49;;;;;;;;;;;15.20;99.90;;;;;;5062018;28;19936;-82
2023/02/14 14:41:15;;;;;;;;;;;15.00;99.90;;;;;;5059369;28;20008;-83
2023/02/14 14:43:41;;;;;;;;;;;15.00;99.90;;;;;;5067461;28;19920;-83
2023/02/14 14:46:08;;;;;;;;;;;14.80;99.90;;;;;;5069659;28;19912;-80
2023/02/14 14:48:38;;;;;;;;;;;14.60;99.90;;;;;;5055941;28;19909;-81
2023/02/14 14:51:14;;;;;;;;;;;14.60;99.90;;;;;;5072858;28;20277;-83
2023/02/14 14:53:43;;;;;;;;;;;14.40;99.90;;;;;;5073624;28;19955;-83
2023/02/14 14:56:13;;;;;;;;;;;14.40;99.90;;;;;;5062593;28;19908;-83
2023/02/14 14:58:40;;;;;;;;;;;14.20;99.90;;;;;;5045663;28;19908;-82